Time;durP1;ratioP1;P1;durP2;ratioP2;P2;SDS_P1;SDS_P2;PMS_P1;PMS_P2;Temp;Humidity;BMP_temperature;BMP_pressure;BME280_temperature;BME280_humidity;BME280_pressure;Samples;Min_cycle;Max_cycle;Signal;HPM_P1;HPM_P2
2023/03/04 00:00:21;;;;;;;104.22;33.90;;;;;;;;;;5025638;28;20136;-58
2023/03/04 00:02:47;;;;;;;113.65;35.13;;;;;;;;;;5008416;28;20164;-66
2023/03/04 00:05:12;;;;;;;116.22;35.58;;;;;;;;;;5026440;28;20127;-60
2023/03/04 00:07:37;;;;;;;107.35;34.22;;;;;;;;;;5023811;28;20037;-61
2023/03/04 00:10:03;;;;;;;115.03;35.50;;;;;;;;;;5021507;28;20040;-71
2023/03/04 00:12:28;;;;;;;121.00;35.53;;;;;;;;;;5024424;28;20029;-57
2023/03/04 00:14:54;;;;;;;122.30;35.78;;;;;;;;;;5023458;28;20026;-59
2023/03/04 00:17:19;;;;;;;119.22;36.00;;;;;;;;;;5023731;28;20382;-61
2023/03/04 00:19:44;;;;;;;103.20;33.60;;;;;;;;;;5026321;28;20108;-66
2023/03/04 00:22:10;;;;;;;108.30;32.78;;;;;;;;;;5022933;28;20482;-63
2023/03/04 00:24:35;;;;;;;112.15;32.90;;;;;;;;;;5024455;28;20033;-62
2023/03/04 00:27:00;;;;;;;114.53;34.13;;;;;;;;;;5024176;28;20038;-58
2023/03/04 00:29:26;;;;;;;111.38;34.35;;;;;;;;;;5022102;28;20033;-60
2023/03/04 00:31:51;;;;;;;104.68;32.85;;;;;;;;;;5024593;28;20529;-63
2023/03/04 00:34:16;;;;;;;116.90;37.85;;;;;;;;;;5025126;28;20026;-63
2023/03/04 00:36:43;;;;;;;123.65;36.97;;;;;;;;;;5022053;28;20120;-59
2023/03/04 00:39:09;;;;;;;122.07;36.63;;;;;;;;;;5023615;28;20084;-62
2023/03/04 00:41:34;;;;;;;125.20;35.67;;;;;;;;;;5030863;28;20797;-62
2023/03/04 00:44:01;;;;;;;122.10;34.25;;;;;;;;;;5019552;28;20577;-60
2023/03/04 00:46:26;;;;;;;121.80;36.60;;;;;;;;;;5023913;28;20033;-58
2023/03/04 00:48:51;;;;;;;124.35;38.03;;;;;;;;;;5020205;28;20067;-62
2023/03/04 00:51:17;;;;;;;113.07;37.38;;;;;;;;;;5021596;28;20481;-58
2023/03/04 00:53:42;;;;;;;116.78;34.95;;;;;;;;;;5022791;28;20620;-61
2023/03/04 00:56:07;;;;;;;110.72;34.58;;;;;;;;;;5019352;28;20048;-63
2023/03/04 00:58:33;;;;;;;102.68;33.45;;;;;;;;;;5019854;28;20120;-60
2023/03/04 01:00:58;;;;;;;101.32;33.38;;;;;;;;;;5022971;28;20028;-62
2023/03/04 01:03:25;;;;;;;117.97;35.95;;;;;;;;;;5019857;28;20025;-66
2023/03/04 01:05:51;;;;;;;114.75;37.13;;;;;;;;;;5019548;28;20029;-63
2023/03/04 01:08:16;;;;;;;104.35;33.47;;;;;;;;;;5023356;28;20694;-64
2023/03/04 01:10:41;;;;;;;102.68;31.85;;;;;;;;;;5024281;28;20454;-58
2023/03/04 01:13:06;;;;;;;117.65;35.15;;;;;;;;;;5021181;28;20069;-62
2023/03/04 01:15:32;;;;;;;99.50;32.60;;;;;;;;;;5022650;28;20056;-56
2023/03/04 01:17:57;;;;;;;106.45;33.88;;;;;;;;;;5023848;28;20932;-58
2023/03/04 01:20:22;;;;;;;100.85;32.38;;;;;;;;;;5022701;28;20037;-61
2023/03/04 01:22:48;;;;;;;114.82;34.55;;;;;;;;;;5022634;28;20106;-58
2023/03/04 01:25:13;;;;;;;123.75;35.42;;;;;;;;;;5022523;28;20378;-61
2023/03/04 01:27:38;;;;;;;97.80;31.42;;;;;;;;;;5023244;28;20033;-65
2023/03/04 01:30:04;;;;;;;119.13;34.53;;;;;;;;;;5022721;28;20037;-61
2023/03/04 01:32:29;;;;;;;112.53;33.95;;;;;;;;;;5022741;28;20035;-57
2023/03/04 01:34:55;;;;;;;120.90;34.97;;;;;;;;;;5013364;28;20143;-63
2023/03/04 01:37:20;;;;;;;118.00;35.58;;;;;;;;;;5023935;28;20095;-59
2023/03/04 01:39:45;;;;;;;136.45;37.90;;;;;;;;;;5020024;28;20744;-61
2023/03/04 01:42:16;;;;;;;126.60;37.83;;;;;;;;;;5024191;28;20070;-56
2023/03/04 01:44:42;;;;;;;120.78;35.05;;;;;;;;;;5023526;28;20282;-66
2023/03/04 01:47:08;;;;;;;119.45;35.25;;;;;;;;;;5027665;28;20872;-60
2023/03/04 01:49:33;;;;;;;115.90;34.63;;;;;;;;;;5020790;28;20037;-62
2023/03/04 01:51:58;;;;;;;121.13;36.58;;;;;;;;;;5022108;28;20100;-62
2023/03/04 01:54:24;;;;;;;100.68;32.17;;;;;;;;;;5013711;28;20033;-64
2023/03/04 01:56:51;;;;;;;116.90;35.72;;;;;;;;;;5021837;28;20033;-58
2023/03/04 01:59:16;;;;;;;107.53;32.80;;;;;;;;;;5020555;28;20033;-58
2023/03/04 02:01:42;;;;;;;113.90;32.65;;;;;;;;;;5022547;28;20036;-64
2023/03/04 02:04:08;;;;;;;117.23;33.33;;;;;;;;;;5024281;28;20061;-60
2023/03/04 02:06:35;;;;;;;115.88;34.58;;;;;;;;;;5013840;28;20537;-66
2023/03/04 02:09:00;;;;;;;129.48;36.78;;;;;;;;;;5019080;28;20896;-64
2023/03/04 02:11:26;;;;;;;135.77;35.75;;;;;;;;;;5020832;28;20114;-63
2023/03/04 02:13:51;;;;;;;112.43;33.25;;;;;;;;;;5021490;28;20025;-60
2023/03/04 02:16:17;;;;;;;110.60;34.63;;;;;;;;;;5023549;28;20029;-55
2023/03/04 02:18:43;;;;;;;119.82;33.67;;;;;;;;;;5021246;28;20037;-66
2023/03/04 02:21:12;;;;;;;113.78;33.63;;;;;;;;;;5022045;28;20035;-61
2023/03/04 02:23:49;;;;;;;114.10;35.65;;;;;;;;;;5020804;28;20235;-56
2023/03/04 02:26:16;;;;;;;115.53;34.08;;;;;;;;;;5018536;28;20060;-62
2023/03/04 02:28:43;;;;;;;109.93;33.40;;;;;;;;;;5022230;28;20505;-63
2023/03/04 02:31:19;;;;;;;104.13;32.78;;;;;;;;;;5020714;28;20128;-65
2023/03/04 02:33:44;;;;;;;123.90;35.30;;;;;;;;;;5004152;28;20026;-64
2023/03/04 02:36:09;;;;;;;121.95;34.03;;;;;;;;;;5021822;28;20332;-57
2023/03/04 02:38:35;;;;;;;114.07;34.67;;;;;;;;;;5021367;28;20160;-61
2023/03/04 02:41:01;;;;;;;128.32;35.63;;;;;;;;;;5023305;28;20037;-62
2023/03/04 02:43:27;;;;;;;118.57;35.83;;;;;;;;;;5022712;28;20734;-67
2023/03/04 02:45:52;;;;;;;107.28;32.72;;;;;;;;;;5022694;28;20044;-57
2023/03/04 02:48:20;;;;;;;130.02;36.08;;;;;;;;;;5024443;28;20052;-63
2023/03/04 02:50:50;;;;;;;123.28;34.80;;;;;;;;;;5021315;28;20035;-64
2023/03/04 02:53:16;;;;;;;133.30;34.45;;;;;;;;;;5017826;28;20026;-59
2023/03/04 02:55:42;;;;;;;118.82;36.33;;;;;;;;;;5023342;28;20037;-60
2023/03/04 02:58:09;;;;;;;;;;;;;;;;;;5026089;28;20045;-61
2023/03/04 03:00:35;;;;;;;114.85;34.83;;;;;;;;;;5024648;28;19913;-61
2023/03/04 03:03:01;;;;;;;113.57;35.22;;;;;;;;;;5026208;28;20095;-64
2023/03/04 03:05:27;;;;;;;134.45;37.90;;;;;;;;;;5022286;28;20068;-58
2023/03/04 03:07:54;;;;;;;112.78;34.45;;;;;;;;;;5024644;28;20044;-58
2023/03/04 03:10:20;;;;;;;123.75;36.10;;;;;;;;;;5024613;28;20029;-64
2023/03/04 03:12:45;;;;;;;112.22;34.35;;;;;;;;;;5025756;28;20033;-63
2023/03/04 03:15:11;;;;;;;125.88;35.80;;;;;;;;;;5025782;28;20029;-60
2023/03/04 03:17:36;;;;;;;103.00;33.75;;;;;;;;;;5023252;28;20155;-63
2023/03/04 03:20:02;;;;;;;110.00;33.25;;;;;;;;;;5024559;28;20124;-64
2023/03/04 03:22:28;;;;;;;127.25;36.75;;;;;;;;;;5022485;28;20033;-62
2023/03/04 03:24:53;;;;;;;117.28;34.72;;;;;;;;;;5025412;28;20406;-59
2023/03/04 03:27:18;;;;;;;118.40;35.67;;;;;;;;;;5025598;28;20119;-58
2023/03/04 03:29:44;;;;;;;111.30;35.03;;;;;;;;;;5023993;28;20053;-59
2023/03/04 03:32:10;;;;;;;119.88;35.63;;;;;;;;;;5023284;28;20059;-64
2023/03/04 03:34:35;;;;;;;113.30;36.45;;;;;;;;;;5009410;28;20128;-63
2023/03/04 03:37:00;;;;;;;150.52;54.88;;;;;;;;;;5009765;28;20840;-56
2023/03/04 03:39:25;;;;;;;128.18;42.35;;;;;;;;;;5021478;28;20042;-66
2023/03/04 03:41:51;;;;;;;132.88;38.60;;;;;;;;;;5025063;28;20167;-64
2023/03/04 03:44:16;;;;;;;118.45;35.30;;;;;;;;;;5026689;28;20635;-60
2023/03/04 03:46:41;;;;;;;119.82;35.35;;;;;;;;;;5023719;28;20457;-61
2023/03/04 03:49:07;;;;;;;131.38;35.35;;;;;;;;;;5027172;28;20034;-58
2023/03/04 03:51:32;;;;;;;124.75;34.72;;;;;;;;;;5021451;28;20099;-62
2023/03/04 03:53:57;;;;;;;123.22;33.85;;;;;;;;;;5023439;28;20120;-59
2023/03/04 03:56:22;;;;;;;114.82;34.50;;;;;;;;;;5027531;28;20029;-62
2023/03/04 03:58:48;;;;;;;120.93;34.10;;;;;;;;;;5024499;28;20040;-58
2023/03/04 04:01:13;;;;;;;112.22;34.08;;;;;;;;;;5023529;28;20683;-58
2023/03/04 04:03:38;;;;;;;118.88;35.20;;;;;;;;;;5025056;28;20029;-64
2023/03/04 04:06:04;;;;;;;115.45;36.80;;;;;;;;;;5022598;28;20048;-60
2023/03/04 04:08:29;;;;;;;126.13;38.80;;;;;;;;;;5026004;28;20041;-58
2023/03/04 04:10:54;;;;;;;121.28;35.63;;;;;;;;;;5021469;28;20040;-63
2023/03/04 04:13:20;;;;;;;123.55;36.35;;;;;;;;;;5025634;28;20033;-59
2023/03/04 04:15:45;;;;;;;118.72;34.03;;;;;;;;;;5023902;28;20364;-60
2023/03/04 04:18:10;;;;;;;119.68;34.00;;;;;;;;;;5023232;28;20041;-60
2023/03/04 04:20:35;;;;;;;137.23;37.38;;;;;;;;;;5025113;28;20110;-60
2023/03/04 04:23:01;;;;;;;120.40;38.72;;;;;;;;;;5024537;28;20032;-62
2023/03/04 04:25:27;;;;;;;136.90;37.58;;;;;;;;;;5022058;28;20036;-69
2023/03/04 04:27:52;;;;;;;134.02;38.58;;;;;;;;;;5024691;28;20033;-61
2023/03/04 04:30:17;;;;;;;136.65;37.33;;;;;;;;;;5022370;28;20588;-58
2023/03/04 04:32:43;;;;;;;131.55;36.85;;;;;;;;;;5023773;28;20091;-61
2023/03/04 04:35:08;;;;;;;127.85;39.63;;;;;;;;;;5024985;28;20033;-59
2023/03/04 04:37:33;;;;;;;130.95;36.40;;;;;;;;;;5022993;28;20037;-61
2023/03/04 04:39:58;;;;;;;122.25;36.72;;;;;;;;;;5022767;28;20034;-60
2023/03/04 04:42:24;;;;;;;120.32;35.78;;;;;;;;;;5023369;28;20032;-61
2023/03/04 04:44:50;;;;;;;133.02;35.80;;;;;;;;;;5021423;28;20649;-63
2023/03/04 04:47:15;;;;;;;123.40;34.25;;;;;;;;;;5022385;28;20083;-65
2023/03/04 04:49:41;;;;;;;118.63;33.72;;;;;;;;;;5022681;28;20029;-61
2023/03/04 04:52:06;;;;;;;135.40;36.28;;;;;;;;;;5023833;28;20097;-60
2023/03/04 04:54:31;;;;;;;129.23;36.05;;;;;;;;;;5024567;28;20094;-61
2023/03/04 04:56:57;;;;;;;132.98;38.05;;;;;;;;;;5022448;28;20037;-59
2023/03/04 04:59:22;;;;;;;136.02;36.65;;;;;;;;;;5023282;28;20086;-62
2023/03/04 05:01:47;;;;;;;123.15;36.40;;;;;;;;;;5021540;28;20032;-58
2023/03/04 05:04:12;;;;;;;125.35;36.45;;;;;;;;;;5021661;28;20443;-63
2023/03/04 05:06:39;;;;;;;138.70;37.03;;;;;;;;;;5022301;28;20438;-63
2023/03/04 05:09:04;;;;;;;129.13;36.33;;;;;;;;;;5022193;28;20033;-65
2023/03/04 05:11:30;;;;;;;125.15;35.85;;;;;;;;;;5023551;28;20420;-65
2023/03/04 05:13:55;;;;;;;130.65;36.10;;;;;;;;;;5024085;28;20041;-57
2023/03/04 05:16:20;;;;;;;114.63;33.60;;;;;;;;;;5022123;28;20030;-59
2023/03/04 05:18:46;;;;;;;136.05;36.13;;;;;;;;;;5023436;28;20037;-58
2023/03/04 05:21:11;;;;;;;140.80;37.15;;;;;;;;;;5022917;28;20022;-60
2023/03/04 05:23:37;;;;;;;133.15;36.65;;;;;;;;;;5023982;28;20033;-62
2023/03/04 05:26:03;;;;;;;131.18;35.08;;;;;;;;;;5022923;28;20041;-61
2023/03/04 05:28:29;;;;;;;127.07;37.13;;;;;;;;;;5023369;28;20033;-56
2023/03/04 05:30:54;;;;;;;134.52;36.88;;;;;;;;;;5024213;28;20371;-66
2023/03/04 05:33:20;;;;;;;139.10;36.92;;;;;;;;;;5022284;28;20136;-58
2023/03/04 05:35:47;;;;;;;108.95;34.65;;;;;;;;;;5023983;28;20128;-64
2023/03/04 05:38:13;;;;;;;122.57;36.40;;;;;;;;;;5021980;28;20079;-61
2023/03/04 05:40:40;;;;;;;145.75;38.42;;;;;;;;;;5023834;28;20041;-62
2023/03/04 05:43:05;;;;;;;135.85;37.60;;;;;;;;;;5023713;28;20037;-57
2023/03/04 05:45:31;;;;;;;132.63;38.67;;;;;;;;;;5019770;28;20034;-66
2023/03/04 05:47:56;;;;;;;140.32;38.75;;;;;;;;;;5023362;28;20041;-58
2023/03/04 05:50:22;;;;;;;132.25;38.63;;;;;;;;;;5020529;28;20094;-61
2023/03/04 05:52:48;;;;;;;136.68;36.70;;;;;;;;;;5022539;28;20387;-60
2023/03/04 05:55:13;;;;;;;136.07;36.80;;;;;;;;;;5023721;28;20102;-65
2023/03/04 05:57:38;;;;;;;146.60;41.58;;;;;;;;;;5023466;28;20040;-58
2023/03/04 06:00:05;;;;;;;132.50;40.25;;;;;;;;;;5019396;28;20029;-60
2023/03/04 06:02:38;;;;;;;151.50;43.78;;;;;;;;;;5019700;28;20045;-69
2023/03/04 06:05:03;;;;;;;162.23;44.58;;;;;;;;;;5019067;28;20025;-58
2023/03/04 06:07:29;;;;;;;166.63;44.95;;;;;;;;;;5019733;28;20879;-58
2023/03/04 06:09:54;;;;;;;141.50;43.97;;;;;;;;;;5015566;28;20470;-63
2023/03/04 06:12:19;;;;;;;140.52;43.63;;;;;;;;;;5022560;28;20036;-63
2023/03/04 06:14:45;;;;;;;163.05;43.55;;;;;;;;;;5023665;28;20032;-63
2023/03/04 06:17:10;;;;;;;142.05;43.03;;;;;;;;;;5023362;28;20589;-64
2023/03/04 06:19:36;;;;;;;155.85;46.00;;;;;;;;;;5019637;28;20053;-65
2023/03/04 06:22:02;;;;;;;153.05;43.35;;;;;;;;;;5020683;28;20052;-63
2023/03/04 06:24:27;;;;;;;139.38;43.15;;;;;;;;;;5018321;28;20022;-59
2023/03/04 06:26:53;;;;;;;140.93;40.47;;;;;;;;;;5022986;28;20037;-59
2023/03/04 06:29:18;;;;;;;137.82;38.95;;;;;;;;;;5023763;28;20133;-59
2023/03/04 06:31:43;;;;;;;133.57;39.20;;;;;;;;;;5027513;28;20777;-56
2023/03/04 06:34:09;;;;;;;139.45;37.17;;;;;;;;;;5026231;28;20383;-59
2023/03/04 06:36:34;;;;;;;116.40;36.35;;;;;;;;;;5025619;28;20447;-65
2023/03/04 06:39:03;;;;;;;132.95;39.80;;;;;;;;;;5025586;28;20041;-63
2023/03/04 06:41:28;;;;;;;151.10;43.45;;;;;;;;;;5023279;28;20479;-62
2023/03/04 06:43:53;;;;;;;154.68;46.40;;;;;;;;;;5027241;28;20033;-55
2023/03/04 06:46:19;;;;;;;139.90;44.17;;;;;;;;;;5025248;28;20036;-62
2023/03/04 06:48:44;;;;;;;165.52;50.50;;;;;;;;;;5025291;28;20082;-65
2023/03/04 06:51:10;;;;;;;163.50;52.45;;;;;;;;;;5022312;28;20525;-60
2023/03/04 06:53:36;;;;;;;174.43;52.40;;;;;;;;;;5025457;28;20028;-56
2023/03/04 06:56:01;;;;;;;165.65;45.97;;;;;;;;;;5026891;28;20053;-57
2023/03/04 06:58:27;;;;;;;162.38;50.15;;;;;;;;;;5024082;28;20419;-68
2023/03/04 07:00:52;;;;;;;160.25;48.70;;;;;;;;;;5024323;28;20076;-61
2023/03/04 07:03:17;;;;;;;151.57;47.05;;;;;;;;;;5025714;28;20072;-65
2023/03/04 07:05:42;;;;;;;181.10;49.83;;;;;;;;;;5022954;28;20124;-64
2023/03/04 07:08:08;;;;;;;202.73;57.67;;;;;;;;;;5025760;28;20041;-58
2023/03/04 07:10:33;;;;;;;214.15;59.17;;;;;;;;;;5020999;28;20029;-63
2023/03/04 07:12:58;;;;;;;198.55;58.30;;;;;;;;;;5027206;28;20132;-57
2023/03/04 07:15:24;;;;;;;174.40;51.67;;;;;;;;;;5025047;28;20056;-60
2023/03/04 07:17:49;;;;;;;166.38;48.08;;;;;;;;;;5023425;28;20025;-62
2023/03/04 07:20:15;;;;;;;171.73;50.65;;;;;;;;;;5027540;28;20490;-66
2023/03/04 07:22:40;;;;;;;177.98;53.95;;;;;;;;;;5026886;28;20110;-59
2023/03/04 07:25:06;;;;;;;171.23;51.63;;;;;;;;;;5024981;28;20116;-61
2023/03/04 07:27:31;;;;;;;182.13;51.13;;;;;;;;;;5025666;28;20065;-63
2023/03/04 07:29:56;;;;;;;148.32;45.58;;;;;;;;;;5025826;28;20060;-59
2023/03/04 07:32:22;;;;;;;147.77;44.83;;;;;;;;;;5022972;28;20029;-61
2023/03/04 07:34:47;;;;;;;153.40;45.38;;;;;;;;;;5028648;28;20394;-60
2023/03/04 07:37:12;;;;;;;158.65;45.38;;;;;;;;;;5025912;28;20038;-58
2023/03/04 07:39:37;;;;;;;155.20;44.83;;;;;;;;;;5023659;28;20061;-65
2023/03/04 07:42:03;;;;;;;168.90;48.70;;;;;;;;;;5025565;28;20034;-58
2023/03/04 07:44:28;;;;;;;166.68;48.72;;;;;;;;;;5022173;28;20116;-58
2023/03/04 07:46:53;;;;;;;169.95;50.10;;;;;;;;;;5027965;28;20072;-60
2023/03/04 07:49:19;;;;;;;170.20;47.47;;;;;;;;;;5027674;28;20045;-63
2023/03/04 07:51:44;;;;;;;156.68;46.50;;;;;;;;;;5023511;28;20036;-60
2023/03/04 07:54:09;;;;;;;158.18;46.38;;;;;;;;;;5020866;28;20494;-59
2023/03/04 07:56:35;;;;;;;149.70;46.08;;;;;;;;;;5024536;28;20080;-62
2023/03/04 07:59:01;;;;;;;156.60;45.35;;;;;;;;;;5025074;28;20095;-62
2023/03/04 08:01:28;;;;;;;154.63;45.35;;;;;;;;;;5020393;28;20068;-65
2023/03/04 08:03:54;;;;;;;127.43;39.80;;;;;;;;;;5019726;28;20060;-59
2023/03/04 08:06:20;;;;;;;145.60;42.63;;;;;;;;;;5021861;28;20129;-62
2023/03/04 08:08:46;;;;;;;141.98;45.30;;;;;;;;;;5025294;28;20320;-61
2023/03/04 08:11:12;;;;;;;146.27;43.15;;;;;;;;;;5022319;28;20397;-59
2023/03/04 08:13:38;;;;;;;147.07;43.00;;;;;;;;;;5022257;28;20043;-63
2023/03/04 08:16:03;;;;;;;141.30;42.20;;;;;;;;;;5025738;28;20037;-59
2023/03/04 08:18:29;;;;;;;147.43;43.88;;;;;;;;;;5024529;28;20038;-58
2023/03/04 08:20:54;;;;;;;135.55;40.33;;;;;;;;;;5023938;28;20057;-61
2023/03/04 08:23:20;;;;;;;135.52;39.58;;;;;;;;;;5025291;28;20608;-56
2023/03/04 08:25:45;;;;;;;101.85;32.65;;;;;;;;;;5023866;28;20125;-59
2023/03/04 08:28:14;;;;;;;119.35;33.65;;;;;;;;;;5019247;28;20108;-62
2023/03/04 08:30:40;;;;;;;101.15;31.25;;;;;;;;;;5024499;28;20041;-63
2023/03/04 08:33:06;;;;;;;113.00;34.08;;;;;;;;;;5021573;28;20038;-59
2023/03/04 08:35:31;;;;;;;112.10;34.65;;;;;;;;;;5025709;28;20536;-62
2023/03/04 08:37:57;;;;;;;112.75;34.13;;;;;;;;;;5025297;28;20065;-60
2023/03/04 08:40:24;;;;;;;96.30;29.02;;;;;;;;;;5025481;28;20417;-64
2023/03/04 08:42:49;;;;;;;105.00;31.63;;;;;;;;;;5021553;28;20545;-65
2023/03/04 08:45:14;;;;;;;104.93;30.38;;;;;;;;;;5026854;28;20038;-55
2023/03/04 08:47:40;;;;;;;115.32;33.00;;;;;;;;;;5026519;28;20454;-59
2023/03/04 08:50:06;;;;;;;112.03;32.50;;;;;;;;;;5027169;28;20394;-62
2023/03/04 08:52:31;;;;;;;111.40;33.83;;;;;;;;;;5026949;28;20057;-61
2023/03/04 08:54:57;;;;;;;123.68;32.28;;;;;;;;;;5027609;28;20498;-61
2023/03/04 08:57:22;;;;;;;112.18;34.20;;;;;;;;;;5025127;28;20035;-67
2023/03/04 08:59:47;;;;;;;112.38;32.38;;;;;;;;;;5023946;28;20596;-64
2023/03/04 09:02:12;;;;;;;107.57;31.65;;;;;;;;;;5024959;28;20471;-60
2023/03/04 09:04:38;;;;;;;101.03;31.02;;;;;;;;;;5025859;28;20026;-61
2023/03/04 09:07:03;;;;;;;100.40;31.63;;;;;;;;;;5023204;28;20387;-61
2023/03/04 09:09:28;;;;;;;126.85;35.05;;;;;;;;;;5023735;28;20092;-58
2023/03/04 09:11:54;;;;;;;101.32;30.83;;;;;;;;;;5025022;28;20065;-61
2023/03/04 09:14:19;;;;;;;90.30;29.27;;;;;;;;;;5023545;28;20440;-64
2023/03/04 09:16:44;;;;;;;98.13;29.98;;;;;;;;;;5020603;28;20033;-63
2023/03/04 09:19:09;;;;;;;103.38;30.80;;;;;;;;;;5025504;28;20053;-64
2023/03/04 09:21:35;;;;;;;107.80;33.28;;;;;;;;;;5024403;28;20025;-60
2023/03/04 09:24:00;;;;;;;118.47;33.28;;;;;;;;;;5024111;28;20040;-60
2023/03/04 09:26:27;;;;;;;108.70;32.88;;;;;;;;;;5025308;28;20434;-63
2023/03/04 09:28:53;;;;;;;120.05;35.50;;;;;;;;;;5022496;28;20036;-62
2023/03/04 09:31:19;;;;;;;124.15;34.83;;;;;;;;;;5021549;28;20124;-60
2023/03/04 09:33:44;;;;;;;121.20;33.08;;;;;;;;;;5025456;28;20435;-64
2023/03/04 09:36:10;;;;;;;110.68;30.20;;;;;;;;;;5024583;28;20082;-58
2023/03/04 09:38:37;;;;;;;109.13;30.40;;;;;;;;;;5023161;28;20054;-61
2023/03/04 09:41:04;;;;;;;111.65;31.98;;;;;;;;;;5023404;28;20477;-62
2023/03/04 09:43:31;;;;;;;102.32;28.88;;;;;;;;;;5023396;28;20057;-60
2023/03/04 09:45:59;;;;;;;107.82;31.05;;;;;;;;;;5020576;28;20034;-66
2023/03/04 09:48:26;;;;;;;107.18;29.88;;;;;;;;;;5018969;28;20758;-60
2023/03/04 09:50:55;;;;;;;115.78;33.78;;;;;;;;;;5024490;28;20032;-59
2023/03/04 09:53:25;;;;;;;103.90;29.92;;;;;;;;;;5023836;28;20146;-62
2023/03/04 09:55:51;;;;;;;94.60;30.05;;;;;;;;;;5025230;28;20112;-60
2023/03/04 09:58:19;;;;;;;96.32;28.23;;;;;;;;;;5025049;28;20132;-60
2023/03/04 10:00:50;;;;;;;103.35;29.35;;;;;;;;;;5025761;28;20033;-58
2023/03/04 10:03:17;;;;;;;100.82;29.77;;;;;;;;;;5024313;28;20446;-61
2023/03/04 10:05:49;;;;;;;124.13;34.53;;;;;;;;;;5025527;28;20113;-63
2023/03/04 10:08:23;;;;;;;96.43;28.80;;;;;;;;;;5023488;28;20041;-62
2023/03/04 10:10:50;;;;;;;100.30;32.67;;;;;;;;;;5023011;28;20039;-59
2023/03/04 10:13:18;;;;;;;97.95;30.35;;;;;;;;;;5024926;28;20053;-63
2023/03/04 10:15:46;;;;;;;106.22;31.08;;;;;;;;;;5020869;28;20441;-61
2023/03/04 10:18:22;;;;;;;106.93;32.75;;;;;;;;;;5026227;28;20056;-62
2023/03/04 10:20:57;;;;;;;115.78;29.63;;;;;;;;;;5023371;28;20061;-59
2023/03/04 10:23:26;;;;;;;101.03;30.85;;;;;;;;;;5020778;28;20700;-59
2023/03/04 10:25:53;;;;;;;107.82;32.60;;;;;;;;;;5029196;28;20049;-60
2023/03/04 10:28:31;;;;;;;106.18;33.05;;;;;;;;;;5022969;28;20153;-62
2023/03/04 10:30:56;;;;;;;109.70;32.00;;;;;;;;;;5023137;28;20108;-61
2023/03/04 10:33:23;;;;;;;117.32;32.63;;;;;;;;;;5025046;28;20041;-60
2023/03/04 10:35:58;;;;;;;105.85;32.47;;;;;;;;;;5027132;28;20099;-58
2023/03/04 10:38:23;;;;;;;106.13;29.17;;;;;;;;;;5026356;28;20118;-59
2023/03/04 10:40:49;;;;;;;95.72;29.92;;;;;;;;;;5022128;28;20155;-60
2023/03/04 10:43:18;;;;;;;102.80;32.15;;;;;;;;;;5021440;28;20390;-60
2023/03/04 10:45:44;;;;;;;107.97;34.30;;;;;;;;;;5024396;28;20037;-59
2023/03/04 10:48:20;;;;;;;114.32;32.50;;;;;;;;;;5025711;28;20041;-63
2023/03/04 10:50:45;;;;;;;93.70;29.17;;;;;;;;;;5021127;28;20033;-61
2023/03/04 10:53:28;;;;;;;110.18;30.75;;;;;;;;;;5023370;28;20032;-60
2023/03/04 10:55:54;;;;;;;103.85;33.00;;;;;;;;;;5023385;28;20533;-60
2023/03/04 10:58:19;;;;;;;94.68;32.03;;;;;;;;;;5019051;28;20037;-59
2023/03/04 11:00:49;;;;;;;95.35;32.25;;;;;;;;;;5024984;28;20025;-60
2023/03/04 11:03:20;;;;;;;103.97;31.05;;;;;;;;;;5021462;28;20033;-62
2023/03/04 11:05:45;;;;;;;107.32;31.00;;;;;;;;;;5023853;28;20057;-58
2023/03/04 11:08:18;;;;;;;96.50;29.70;;;;;;;;;;5020476;28;20061;-61
2023/03/04 11:10:44;;;;;;;94.22;29.35;;;;;;;;;;5020978;28;20112;-59
2023/03/04 11:13:17;;;;;;;98.50;29.85;;;;;;;;;;5019579;28;20128;-58
2023/03/04 11:16:02;;;;;;;104.15;31.30;;;;;;;;;;5025965;28;20105;-62
2023/03/04 11:18:31;;;;;;;105.60;31.77;;;;;;;;;;5025832;28;20022;-58
2023/03/04 11:20:58;;;;;;;95.70;29.58;;;;;;;;;;5027009;28;20064;-64
2023/03/04 11:23:23;;;;;;;102.03;30.00;;;;;;;;;;5023506;28;20018;-58
2023/03/04 11:25:53;;;;;;;111.53;31.25;;;;;;;;;;5002693;28;20103;-63
2023/03/04 11:28:25;;;;;;;102.82;31.50;;;;;;;;;;5024299;28;20064;-63
2023/03/04 11:31:05;;;;;;;113.70;34.17;;;;;;;;;;5025214;28;20120;-63
2023/03/04 11:33:49;;;;;;;108.78;32.55;;;;;;;;;;5024488;28;20021;-61
2023/03/04 11:36:33;;;;;;;105.35;32.60;;;;;;;;;;5027110;28;20401;-55
2023/03/04 11:38:58;;;;;;;94.85;30.63;;;;;;;;;;5015554;28;20045;-55
2023/03/04 11:41:24;;;;;;;100.35;29.88;;;;;;;;;;5025654;28;20017;-57
2023/03/04 11:43:49;;;;;;;88.30;30.90;;;;;;;;;;5028334;28;20044;-60
2023/03/04 11:46:24;;;;;;;106.63;30.35;;;;;;;;;;5025011;28;20819;-64
2023/03/04 11:49:08;;;;;;;102.07;30.35;;;;;;;;;;5025061;28;20504;-63
2023/03/04 11:51:33;;;;;;;107.07;32.40;;;;;;;;;;5032030;28;20038;-64
2023/03/04 11:54:02;;;;;;;103.63;31.42;;;;;;;;;;5025291;28;20144;-62
2023/03/04 11:56:30;;;;;;;105.25;33.78;;;;;;;;;;5025262;28;20041;-63
2023/03/04 11:58:59;;;;;;;101.25;30.23;;;;;;;;;;5024746;28;20136;-67
2023/03/04 12:01:31;;;;;;;108.30;32.75;;;;;;;;;;5025765;28;20013;-59
2023/03/04 12:04:08;;;;;;;107.20;33.60;;;;;;;;;;5024553;28;20049;-61
2023/03/04 12:06:40;;;;;;;94.88;31.20;;;;;;;;;;5025309;28;20029;-59
2023/03/04 12:09:05;;;;;;;95.97;31.13;;;;;;;;;;5024595;28;20044;-63
2023/03/04 12:11:38;;;;;;;97.50;32.80;;;;;;;;;;5026893;28;20029;-58
2023/03/04 12:14:08;;;;;;;110.45;32.05;;;;;;;;;;5025190;28;20037;-57
2023/03/04 12:16:33;;;;;;;87.35;29.02;;;;;;;;;;5030950;28;20116;-62
2023/03/04 12:19:01;;;;;;;91.38;30.25;;;;;;;;;;5026744;28;20036;-58
2023/03/04 12:21:26;;;;;;;99.00;30.33;;;;;;;;;;5025584;28;20478;-65
2023/03/04 12:23:52;;;;;;;106.15;31.85;;;;;;;;;;5027534;28;20091;-57
2023/03/04 12:26:38;;;;;;;108.30;32.55;;;;;;;;;;5025878;28;20049;-58
2023/03/04 12:29:12;;;;;;;108.95;31.52;;;;;;;;;;5026247;28;20037;-62
2023/03/04 12:31:39;;;;;;;105.30;33.03;;;;;;;;;;5025437;28;20064;-59
2023/03/04 12:34:05;;;;;;;102.97;34.63;;;;;;;;;;5025760;28;20040;-64
2023/03/04 12:36:33;;;;;;;120.20;34.65;;;;;;;;;;5025529;28;20059;-61
2023/03/04 12:39:14;;;;;;;102.18;32.72;;;;;;;;;;5025527;28;20095;-65
2023/03/04 12:41:52;;;;;;;111.60;34.67;;;;;;;;;;5023058;28;20037;-59
2023/03/04 12:44:19;;;;;;;102.55;32.88;;;;;;;;;;5020161;28;20364;-67
2023/03/04 12:47:10;;;;;;;110.35;34.92;;;;;;;;;;5019296;28;20413;-66
2023/03/04 12:49:38;;;;;;;106.57;31.10;;;;;;;;;;5012725;28;20577;-60
2023/03/04 12:52:22;;;;;;;110.22;33.35;;;;;;;;;;5015151;28;20021;-57
2023/03/04 12:54:49;;;;;;;117.50;36.42;;;;;;;;;;5018996;28;20025;-64
2023/03/04 12:57:21;;;;;;;104.47;31.83;;;;;;;;;;5023606;28;20040;-61
2023/03/04 12:59:49;;;;;;;110.90;32.30;;;;;;;;;;5015011;28;20025;-55
2023/03/04 13:02:33;;;;;;;115.40;36.40;;;;;;;;;;5023413;28;20040;-63
2023/03/04 13:05:07;;;;;;;114.15;35.17;;;;;;;;;;5021237;28;20033;-64
2023/03/04 13:07:40;;;;;;;118.78;34.38;;;;;;;;;;5017265;28;20034;-59
2023/03/04 13:10:12;;;;;;;118.10;34.22;;;;;;;;;;5021054;28;20029;-62
2023/03/04 13:12:45;;;;;;;120.05;34.83;;;;;;;;;;5022305;28;20146;-61
2023/03/04 13:15:11;;;;;;;115.45;35.10;;;;;;;;;;5015932;28;20037;-61
2023/03/04 13:17:37;;;;;;;130.68;37.10;;;;;;;;;;5017184;28;20037;-64
2023/03/04 13:20:21;;;;;;;134.52;40.33;;;;;;;;;;5017017;28;20033;-62
2023/03/04 13:22:49;;;;;;;130.55;38.63;;;;;;;;;;5015941;28;20494;-61
2023/03/04 13:25:34;;;;;;;138.30;38.85;;;;;;;;;;5020036;28;20038;-64
2023/03/04 13:28:02;;;;;;;138.77;38.25;;;;;;;;;;5024362;28;20041;-59
2023/03/04 13:30:30;;;;;;;135.82;37.65;;;;;;;;;;5022553;28;20036;-55
2023/03/04 13:33:16;;;;;;;139.43;38.25;;;;;;;;;;5014427;28;20887;-64
2023/03/04 13:35:44;;;;;;;129.30;35.35;;;;;;;;;;4994013;28;20111;-63
2023/03/04 13:38:29;;;;;;;121.93;35.45;;;;;;;;;;5021538;28;20060;-61
2023/03/04 13:41:10;;;;;;;136.13;38.40;;;;;;;;;;5016185;28;20124;-62
2023/03/04 13:43:46;;;;;;;131.75;40.47;;;;;;;;;;5015179;28;20060;-63
2023/03/04 13:46:17;;;;;;;126.95;37.50;;;;;;;;;;5020571;28;20045;-62
2023/03/04 13:48:45;;;;;;;133.02;38.67;;;;;;;;;;5015561;28;20199;-60
2023/03/04 13:51:35;;;;;;;128.65;37.03;;;;;;;;;;5016194;28;20029;-64
2023/03/04 13:54:04;;;;;;;138.80;38.20;;;;;;;;;;5016361;28;20215;-60
2023/03/04 13:56:34;;;;;;;146.02;40.40;;;;;;;;;;5015245;28;20033;-60
2023/03/04 13:59:03;;;;;;;119.25;35.60;;;;;;;;;;5015063;28;20056;-60
2023/03/04 14:01:32;;;;;;;148.55;39.22;;;;;;;;;;5018329;28;20044;-59
2023/03/04 14:03:58;;;;;;;146.88;39.75;;;;;;;;;;5010909;28;20254;-62
2023/03/04 14:06:25;;;;;;;146.80;39.20;;;;;;;;;;5023392;28;20059;-60